createdAt,value
2023-03-22T00:03:13.408Z,12.84
2023-03-22T00:08:15.742Z,12.84
2023-03-22T00:13:17.341Z,12.84
2023-03-22T00:18:19.365Z,12.79
2023-03-22T00:23:21.547Z,12.72
2023-03-22T00:28:23.538Z,12.72
2023-03-22T00:33:25.617Z,12.69
2023-03-22T00:38:42.613Z,12.74
2023-03-22T00:43:45.601Z,12.74
2023-03-22T00:48:47.634Z,12.68
2023-03-22T00:53:50.908Z,12.64
2023-03-22T00:58:52.558Z,12.60
2023-03-22T01:03:55.487Z,12.47
2023-03-22T01:08:57.466Z,12.46
2023-03-22T01:13:59.597Z,12.41
2023-03-22T01:19:01.259Z,12.34
2023-03-22T01:24:03.318Z,12.28
2023-03-22T01:29:05.571Z,12.29
2023-03-22T01:34:07.391Z,12.19
2023-03-22T01:39:09.456Z,12.14
2023-03-22T01:44:21.846Z,12.09
2023-03-22T01:49:31.325Z,12.01
2023-03-22T01:54:45.326Z,12.01
2023-03-22T02:00:04.292Z,11.95
2023-03-22T02:05:25.890Z,11.88
2023-03-22T02:10:30.772Z,11.76
2023-03-22T02:16:00.676Z,11.74
2023-03-22T02:21:38.662Z,11.68
2023-03-22T02:27:04.939Z,11.55
2023-03-22T02:32:25.526Z,11.57
2023-03-22T02:37:49.793Z,11.45
2023-03-22T02:43:10.830Z,11.39
2023-03-22T02:48:25.561Z,11.29
2023-03-22T02:53:44.673Z,11.18
2023-03-22T02:58:53.219Z,11.19
2023-03-22T03:03:57.445Z,11.11
2023-03-22T03:09:02.731Z,11.10
2023-03-22T03:14:04.854Z,10.99
2023-03-22T03:19:41.668Z,10.97
2023-03-22T03:25:14.462Z,10.91
2023-03-22T03:30:27.172Z,10.83
2023-03-22T03:35:38.333Z,10.86
2023-03-22T03:40:42.239Z,10.92
2023-03-22T03:45:44.546Z,10.87
2023-03-22T03:50:47.517Z,10.86
2023-03-22T03:55:49.468Z,10.86
2023-03-22T04:00:51.704Z,10.86
2023-03-22T04:06:06.465Z,10.83
2023-03-22T04:11:12.213Z,10.76
2023-03-22T04:16:15.405Z,10.71
2023-03-22T04:21:17.365Z,10.74
2023-03-22T04:26:26.924Z,10.69
2023-03-22T04:31:45.253Z,10.64
2023-03-22T04:36:57.600Z,10.64
2023-03-22T04:42:04.493Z,10.68
2023-03-22T04:47:07.485Z,10.61
2023-03-22T04:52:10.238Z,10.63
2023-03-22T04:57:12.695Z,10.67
2023-03-22T05:02:19.771Z,10.53
2023-03-22T05:07:23.202Z,10.48
2023-03-22T05:12:29.130Z,10.51
2023-03-22T05:17:40.628Z,10.60
2023-03-22T05:22:42.257Z,10.61
2023-03-22T05:27:45.888Z,10.54
2023-03-22T05:33:05.359Z,10.63
2023-03-22T05:38:14.869Z,10.49
2023-03-22T05:43:21.773Z,10.74
2023-03-22T05:48:25.430Z,10.91
2023-03-22T05:53:27.309Z,11.04
2023-03-22T05:58:33.839Z,11.03
2023-03-22T06:03:36.246Z,11.12
2023-03-22T06:08:51.023Z,11.13
2023-03-22T06:13:53.346Z,11.10
2023-03-22T06:18:58.372Z,11.29
2023-03-22T06:24:00.519Z,11.33
2023-03-22T06:29:03.684Z,11.36
2023-03-22T06:34:07.317Z,11.46
2023-03-22T06:39:15.307Z,11.46
2023-03-22T06:44:19.327Z,11.60
2023-03-22T06:49:27.866Z,11.68
2023-03-22T06:54:30.531Z,11.81
2023-03-22T06:59:32.355Z,11.94
2023-03-22T07:04:34.301Z,11.97
2023-03-22T07:09:36.130Z,12.16
2023-03-22T07:14:38.213Z,12.17
2023-03-22T07:20:03.956Z,12.18
2023-03-22T07:25:06.596Z,12.26
2023-03-22T07:30:09.879Z,12.28
2023-03-22T07:35:18.733Z,12.36
2023-03-22T07:40:22.102Z,12.42
2023-03-22T07:45:26.292Z,12.46
2023-03-22T07:50:55.680Z,12.68
2023-03-22T07:55:58.987Z,12.76
2023-03-22T08:01:05.509Z,12.99
2023-03-22T08:06:32.767Z,13.03
2023-03-22T08:11:36.203Z,13.18
2023-03-22T08:16:38.478Z,13.53
2023-03-22T08:21:40.865Z,13.59
2023-03-22T08:26:50.638Z,13.66
2023-03-22T08:32:02.558Z,13.94
2023-03-22T08:37:06.128Z,14.07
2023-03-22T08:42:09.453Z,14.20
2023-03-22T08:47:11.356Z,14.35
2023-03-22T08:52:15.477Z,14.47
2023-03-22T08:57:38.880Z,14.54
2023-03-22T09:03:13.730Z,14.60
2023-03-22T09:08:19.555Z,14.53
2023-03-22T09:13:23.734Z,14.77
2023-03-22T09:18:30.842Z,14.81
2023-03-22T09:23:37.754Z,15.06
2023-03-22T09:28:40.801Z,15.25
2023-03-22T09:33:44.278Z,15.19
2023-03-22T09:38:46.600Z,15.30
2023-03-22T09:43:51.615Z,15.38
2023-03-22T09:48:53.811Z,15.57
2023-03-22T09:53:55.610Z,15.70
2023-03-22T09:59:11.251Z,15.73
2023-03-22T10:04:31.281Z,15.63
2023-03-22T10:09:42.155Z,15.64
2023-03-22T10:14:51.804Z,15.54
2023-03-22T10:19:58.102Z,15.74
2023-03-22T10:25:00.450Z,15.94
2023-03-22T10:30:24.008Z,15.89
2023-03-22T10:35:26.178Z,15.97
2023-03-22T10:40:35.182Z,16.04
2023-03-22T10:45:37.092Z,16.03
2023-03-22T10:50:42.362Z,16.05
2023-03-22T10:55:44.327Z,16.01
2023-03-22T11:00:49.381Z,16.04
2023-03-22T11:06:01.451Z,16.05
2023-03-22T11:11:07.699Z,16.34
2023-03-22T11:16:09.367Z,16.52
2023-03-22T11:21:12.457Z,16.18
2023-03-22T11:26:14.762Z,16.25
2023-03-22T11:31:18.437Z,16.50
2023-03-22T11:36:20.093Z,16.68
2023-03-22T11:41:25.579Z,16.75
2023-03-22T11:46:27.350Z,16.71
2023-03-22T11:51:33.279Z,16.80
2023-03-22T11:56:35.154Z,16.64
2023-03-22T12:01:41.258Z,17.01
2023-03-22T12:06:43.297Z,16.84
2023-03-22T12:11:47.607Z,17.09
2023-03-22T12:17:51.009Z,17.13
2023-03-22T12:22:54.649Z,17.29
2023-03-22T12:28:11.826Z,17.38
2023-03-22T12:33:37.253Z,17.48
2023-03-22T12:38:48.654Z,17.40
2023-03-22T12:44:03.132Z,17.46
2023-03-22T12:49:40.452Z,17.40
2023-03-22T12:54:42.266Z,17.58
2023-03-22T12:59:46.142Z,17.55
2023-03-22T13:04:53.908Z,17.72
2023-03-22T13:09:55.672Z,17.65
2023-03-22T13:15:03.439Z,17.80
2023-03-22T13:20:11.439Z,17.65
2023-03-22T13:25:27.695Z,17.49
2023-03-22T13:30:36.009Z,17.73
2023-03-22T13:35:43.251Z,17.85
2023-03-22T13:41:24.457Z,17.82
2023-03-22T13:46:38.192Z,17.72
2023-03-22T13:51:40.553Z,17.60
2023-03-22T13:56:42.202Z,17.52
2023-03-22T14:01:49.229Z,17.69
2023-03-22T14:07:19.467Z,17.67
2023-03-22T14:12:32.992Z,17.67
2023-03-22T14:17:39.646Z,17.55
